หน้าหลัก
METAR-TAF:

METAR-TAF

ท่าอากาศยาน :

Rand Airport

Germiston, แอฟริกาใต้

ละติจูด: 26-14-33S, ลองจิจูด: 028-09-04E, ความสูง: 1671 ม.

การสังเกตสภาพอากาศปัจจุบัน

รายงานได้ทำขึ้นเมื่อ 6 ชั่วโมงและ 12 นาทีที่แล้ว ณ เวลา 05:00 UTC
ลม 11 นอตจากเหนือ/ตะวันออกเฉียงเหนือ
อุณหภูมิ 20°C
ความชื้น 83%
ความกดอากาศ 1022 hPa
ทัศนวิสัย 10 กม. หรือมากกว่า
ไม่มีเมฆต่ำกว่า 1,500 ม. และไม่มีเมฆคิวมูโลนิมบัส

METAR: FAGM 230500Z 02011KT CAVOK 20/17 Q1022

เวลา: 13:12 (11:12 UTC)


TAF: หายไป

สังเกตการณ์สภาพอากาศและพยากรณ์อากาศของสนามบินมากกว่า 4000 แห่ง (รายงาน METAR และ TAF).

สถานีที่ดูได้จะแสดงไว้ด้วยจุดสีเหลืองและสีแดงบนแผนที่.

เลื่อนเมาส์ไปเหนือจุดเพื่อดูชื่อสถานี.

แล้วคลิกเพื่อดูสังเกตการณ์และการพยากรณ์สภาพอากาศ.

ในการเปลี่ยนแผนที่: คลิกที่ปุ่มสีเขียวที่มีกากบาทสีดำเพื่อซูมเข้า; ที่ปุ่มสีเขียวที่มีขีดเพื่อซูมออก; หรือที่ลูกศรสีเขียวเพื่อไปยังแผนที่ที่อยู่ติดกัน.


METAR-TAF: